sensor_id;sensor_type;location;lat;lon;timestamp;P1;durP1;ratioP1;P2;durP2;ratioP2
11608;SDS011;5860;52.018;8.536;2024-02-21T00:02:21;28.80;;;14.03;;
11608;SDS011;5860;52.018;8.536;2024-02-21T00:04:48;26.73;;;14.73;;
11608;SDS011;5860;52.018;8.536;2024-02-21T00:07:15;27.63;;;13.60;;
11608;SDS011;5860;52.018;8.536;2024-02-21T00:09:42;26.57;;;14.13;;
11608;SDS011;5860;52.018;8.536;2024-02-21T00:12:09;28.27;;;14.97;;
11608;SDS011;5860;52.018;8.536;2024-02-21T00:14:36;29.70;;;15.10;;
11608;SDS011;5860;52.018;8.536;2024-02-21T00:17:03;26.50;;;14.27;;
11608;SDS011;5860;52.018;8.536;2024-02-21T00:19:29;33.83;;;15.77;;
11608;SDS011;5860;52.018;8.536;2024-02-21T00:21:56;24.13;;;13.57;;
11608;SDS011;5860;52.018;8.536;2024-02-21T00:24:23;28.80;;;15.20;;
11608;SDS011;5860;52.018;8.536;2024-02-21T00:26:50;25.83;;;13.77;;
11608;SDS011;5860;52.018;8.536;2024-02-21T00:29:17;30.33;;;15.13;;
11608;SDS011;5860;52.018;8.536;2024-02-21T00:31:44;24.87;;;13.93;;
11608;SDS011;5860;52.018;8.536;2024-02-21T00:34:11;27.33;;;14.87;;
11608;SDS011;5860;52.018;8.536;2024-02-21T00:36:39;29.77;;;15.60;;
11608;SDS011;5860;52.018;8.536;2024-02-21T00:39:06;23.93;;;14.17;;
11608;SDS011;5860;52.018;8.536;2024-02-21T00:41:33;28.03;;;15.17;;
11608;SDS011;5860;52.018;8.536;2024-02-21T00:43:59;27.40;;;15.13;;
11608;SDS011;5860;52.018;8.536;2024-02-21T00:46:26;31.13;;;15.50;;
11608;SDS011;5860;52.018;8.536;2024-02-21T00:48:53;30.10;;;15.63;;
11608;SDS011;5860;52.018;8.536;2024-02-21T00:51:20;28.43;;;14.50;;
11608;SDS011;5860;52.018;8.536;2024-02-21T00:53:47;31.70;;;15.50;;
11608;SDS011;5860;52.018;8.536;2024-02-21T00:56:14;32.90;;;16.23;;
11608;SDS011;5860;52.018;8.536;2024-02-21T00:58:42;26.77;;;15.07;;
11608;SDS011;5860;52.018;8.536;2024-02-21T01:01:09;26.07;;;14.93;;
11608;SDS011;5860;52.018;8.536;2024-02-21T01:03:36;27.73;;;14.83;;
11608;SDS011;5860;52.018;8.536;2024-02-21T01:06:06;32.23;;;16.87;;
11608;SDS011;5860;52.018;8.536;2024-02-21T01:08:33;27.87;;;14.40;;
11608;SDS011;5860;52.018;8.536;2024-02-21T01:10:59;26.20;;;14.47;;
11608;SDS011;5860;52.018;8.536;2024-02-21T01:13:26;25.63;;;14.50;;
11608;SDS011;5860;52.018;8.536;2024-02-21T01:15:54;32.83;;;13.83;;
11608;SDS011;5860;52.018;8.536;2024-02-21T01:18:20;29.73;;;14.50;;
11608;SDS011;5860;52.018;8.536;2024-02-21T01:20:47;28.60;;;14.33;;
11608;SDS011;5860;52.018;8.536;2024-02-21T01:23:14;28.07;;;14.37;;
11608;SDS011;5860;52.018;8.536;2024-02-21T01:25:41;25.27;;;14.40;;
11608;SDS011;5860;52.018;8.536;2024-02-21T01:28:08;27.30;;;14.87;;
11608;SDS011;5860;52.018;8.536;2024-02-21T01:30:35;27.27;;;13.87;;
11608;SDS011;5860;52.018;8.536;2024-02-21T01:33:02;27.20;;;13.97;;
11608;SDS011;5860;52.018;8.536;2024-02-21T01:35:29;24.17;;;13.83;;
11608;SDS011;5860;52.018;8.536;2024-02-21T01:37:56;24.50;;;13.27;;
11608;SDS011;5860;52.018;8.536;2024-02-21T01:40:23;27.53;;;14.47;;
11608;SDS011;5860;52.018;8.536;2024-02-21T01:42:50;26.50;;;13.80;;
11608;SDS011;5860;52.018;8.536;2024-02-21T01:45:19;29.53;;;13.87;;
11608;SDS011;5860;52.018;8.536;2024-02-21T01:47:47;24.70;;;13.73;;
11608;SDS011;5860;52.018;8.536;2024-02-21T01:50:15;32.03;;;14.60;;
11608;SDS011;5860;52.018;8.536;2024-02-21T01:52:44;26.47;;;14.23;;
11608;SDS011;5860;52.018;8.536;2024-02-21T01:55:13;28.27;;;14.73;;
11608;SDS011;5860;52.018;8.536;2024-02-21T01:57:41;27.77;;;14.90;;
11608;SDS011;5860;52.018;8.536;2024-02-21T02:00:11;28.57;;;13.50;;
11608;SDS011;5860;52.018;8.536;2024-02-21T02:02:40;29.57;;;14.27;;
11608;SDS011;5860;52.018;8.536;2024-02-21T02:05:08;25.47;;;14.60;;
11608;SDS011;5860;52.018;8.536;2024-02-21T02:07:35;26.97;;;14.80;;
11608;SDS011;5860;52.018;8.536;2024-02-21T02:10:02;35.07;;;14.80;;
11608;SDS011;5860;52.018;8.536;2024-02-21T02:12:29;28.60;;;13.80;;
11608;SDS011;5860;52.018;8.536;2024-02-21T02:14:59;30.03;;;13.50;;
11608;SDS011;5860;52.018;8.536;2024-02-21T02:17:27;26.33;;;14.53;;
11608;SDS011;5860;52.018;8.536;2024-02-21T02:19:54;25.70;;;14.00;;
11608;SDS011;5860;52.018;8.536;2024-02-21T02:22:22;28.50;;;15.10;;
11608;SDS011;5860;52.018;8.536;2024-02-21T02:24:52;27.03;;;14.80;;
11608;SDS011;5860;52.018;8.536;2024-02-21T02:27:19;25.43;;;14.00;;
11608;SDS011;5860;52.018;8.536;2024-02-21T02:29:46;25.97;;;13.60;;
11608;SDS011;5860;52.018;8.536;2024-02-21T02:32:13;26.03;;;15.23;;
11608;SDS011;5860;52.018;8.536;2024-02-21T02:34:40;31.20;;;15.43;;
11608;SDS011;5860;52.018;8.536;2024-02-21T02:37:07;31.00;;;15.03;;
11608;SDS011;5860;52.018;8.536;2024-02-21T02:39:34;25.13;;;14.90;;
11608;SDS011;5860;52.018;8.536;2024-02-21T02:42:01;31.57;;;14.20;;
11608;SDS011;5860;52.018;8.536;2024-02-21T02:44:28;25.47;;;13.53;;
11608;SDS011;5860;52.018;8.536;2024-02-21T02:46:55;28.27;;;15.03;;
11608;SDS011;5860;52.018;8.536;2024-02-21T02:49:22;28.30;;;15.10;;
11608;SDS011;5860;52.018;8.536;2024-02-21T02:51:48;28.23;;;14.60;;
11608;SDS011;5860;52.018;8.536;2024-02-21T02:54:15;30.60;;;15.50;;
11608;SDS011;5860;52.018;8.536;2024-02-21T02:56:42;32.60;;;15.83;;
11608;SDS011;5860;52.018;8.536;2024-02-21T02:59:09;25.93;;;15.20;;
11608;SDS011;5860;52.018;8.536;2024-02-21T03:01:36;27.27;;;14.93;;
11608;SDS011;5860;52.018;8.536;2024-02-21T03:04:04;26.77;;;14.40;;
11608;SDS011;5860;52.018;8.536;2024-02-21T03:06:31;24.90;;;14.07;;
11608;SDS011;5860;52.018;8.536;2024-02-21T03:08:58;26.47;;;14.83;;
11608;SDS011;5860;52.018;8.536;2024-02-21T03:11:26;24.93;;;13.93;;
11608;SDS011;5860;52.018;8.536;2024-02-21T03:13:56;27.87;;;13.20;;
11608;SDS011;5860;52.018;8.536;2024-02-21T03:16:23;27.17;;;14.90;;
11608;SDS011;5860;52.018;8.536;2024-02-21T03:18:50;23.47;;;13.77;;
11608;SDS011;5860;52.018;8.536;2024-02-21T03:21:17;26.47;;;13.93;;
11608;SDS011;5860;52.018;8.536;2024-02-21T03:23:44;24.77;;;13.77;;
11608;SDS011;5860;52.018;8.536;2024-02-21T03:26:11;25.67;;;13.47;;
11608;SDS011;5860;52.018;8.536;2024-02-21T03:28:37;20.87;;;13.53;;
11608;SDS011;5860;52.018;8.536;2024-02-21T03:31:06;27.80;;;13.90;;
11608;SDS011;5860;52.018;8.536;2024-02-21T03:33:33;26.93;;;13.77;;
11608;SDS011;5860;52.018;8.536;2024-02-21T03:36:00;24.43;;;13.90;;
11608;SDS011;5860;52.018;8.536;2024-02-21T03:38:27;26.27;;;15.33;;
11608;SDS011;5860;52.018;8.536;2024-02-21T03:40:53;24.47;;;13.40;;
11608;SDS011;5860;52.018;8.536;2024-02-21T03:43:21;26.77;;;13.70;;
11608;SDS011;5860;52.018;8.536;2024-02-21T03:45:51;23.73;;;14.07;;
11608;SDS011;5860;52.018;8.536;2024-02-21T03:48:17;25.00;;;13.30;;
11608;SDS011;5860;52.018;8.536;2024-02-21T03:50:44;24.33;;;12.83;;
11608;SDS011;5860;52.018;8.536;2024-02-21T03:53:11;26.53;;;12.77;;
11608;SDS011;5860;52.018;8.536;2024-02-21T03:55:38;22.90;;;13.30;;
11608;SDS011;5860;52.018;8.536;2024-02-21T03:58:05;22.63;;;13.17;;
11608;SDS011;5860;52.018;8.536;2024-02-21T04:00:32;23.70;;;12.27;;
11608;SDS011;5860;52.018;8.536;2024-02-21T04:02:59;20.47;;;11.73;;
11608;SDS011;5860;52.018;8.536;2024-02-21T04:05:25;20.67;;;11.77;;
11608;SDS011;5860;52.018;8.536;2024-02-21T04:07:53;27.00;;;12.87;;
11608;SDS011;5860;52.018;8.536;2024-02-21T04:10:20;22.57;;;11.67;;
11608;SDS011;5860;52.018;8.536;2024-02-21T04:12:46;24.63;;;11.67;;
11608;SDS011;5860;52.018;8.536;2024-02-21T04:15:16;25.07;;;12.50;;
11608;SDS011;5860;52.018;8.536;2024-02-21T04:17:43;21.57;;;11.90;;
11608;SDS011;5860;52.018;8.536;2024-02-21T04:20:14;21.00;;;12.10;;
11608;SDS011;5860;52.018;8.536;2024-02-21T04:22:45;22.80;;;11.63;;
11608;SDS011;5860;52.018;8.536;2024-02-21T04:25:12;22.70;;;12.37;;
11608;SDS011;5860;52.018;8.536;2024-02-21T04:27:39;18.37;;;11.67;;
11608;SDS011;5860;52.018;8.536;2024-02-21T04:30:06;23.83;;;11.67;;
11608;SDS011;5860;52.018;8.536;2024-02-21T04:32:33;19.30;;;11.00;;
11608;SDS011;5860;52.018;8.536;2024-02-21T04:35:00;17.83;;;11.60;;
11608;SDS011;5860;52.018;8.536;2024-02-21T04:37:28;19.83;;;11.43;;
11608;SDS011;5860;52.018;8.536;2024-02-21T04:39:54;21.83;;;11.77;;
11608;SDS011;5860;52.018;8.536;2024-02-21T04:42:21;23.63;;;11.33;;
11608;SDS011;5860;52.018;8.536;2024-02-21T04:44:48;20.50;;;10.80;;
11608;SDS011;5860;52.018;8.536;2024-02-21T04:47:15;21.37;;;11.07;;
11608;SDS011;5860;52.018;8.536;2024-02-21T04:49:42;22.37;;;11.23;;
11608;SDS011;5860;52.018;8.536;2024-02-21T04:52:09;17.87;;;10.60;;
11608;SDS011;5860;52.018;8.536;2024-02-21T04:54:35;23.10;;;12.30;;
11608;SDS011;5860;52.018;8.536;2024-02-21T04:57:02;25.57;;;12.20;;
11608;SDS011;5860;52.018;8.536;2024-02-21T04:59:29;20.83;;;11.40;;
11608;SDS011;5860;52.018;8.536;2024-02-21T05:01:57;21.87;;;11.47;;
11608;SDS011;5860;52.018;8.536;2024-02-21T05:04:25;28.10;;;12.77;;
11608;SDS011;5860;52.018;8.536;2024-02-21T05:06:52;22.63;;;12.30;;
11608;SDS011;5860;52.018;8.536;2024-02-21T05:09:18;18.33;;;11.13;;
11608;SDS011;5860;52.018;8.536;2024-02-21T05:11:45;26.70;;;11.43;;
11608;SDS011;5860;52.018;8.536;2024-02-21T05:14:12;23.93;;;13.00;;
11608;SDS011;5860;52.018;8.536;2024-02-21T05:16:39;23.33;;;11.83;;
11608;SDS011;5860;52.018;8.536;2024-02-21T05:19:06;25.27;;;11.57;;
11608;SDS011;5860;52.018;8.536;2024-02-21T05:21:33;22.00;;;12.60;;
11608;SDS011;5860;52.018;8.536;2024-02-21T05:24:00;21.33;;;12.73;;
11608;SDS011;5860;52.018;8.536;2024-02-21T05:26:27;21.53;;;13.37;;
11608;SDS011;5860;52.018;8.536;2024-02-21T05:28:55;26.97;;;12.63;;
11608;SDS011;5860;52.018;8.536;2024-02-21T05:31:22;24.90;;;13.40;;
11608;SDS011;5860;52.018;8.536;2024-02-21T05:33:49;29.17;;;13.10;;
11608;SDS011;5860;52.018;8.536;2024-02-21T05:36:16;26.97;;;12.47;;
11608;SDS011;5860;52.018;8.536;2024-02-21T05:38:43;25.20;;;13.83;;
11608;SDS011;5860;52.018;8.536;2024-02-21T05:41:09;26.00;;;14.17;;
11608;SDS011;5860;52.018;8.536;2024-02-21T05:43:38;22.80;;;13.83;;
11608;SDS011;5860;52.018;8.536;2024-02-21T05:46:05;26.20;;;14.63;;
11608;SDS011;5860;52.018;8.536;2024-02-21T05:48:31;25.33;;;12.90;;
11608;SDS011;5860;52.018;8.536;2024-02-21T05:51:04;27.13;;;13.63;;
11608;SDS011;5860;52.018;8.536;2024-02-21T05:53:31;24.67;;;14.43;;
11608;SDS011;5860;52.018;8.536;2024-02-21T05:55:58;24.53;;;14.33;;
11608;SDS011;5860;52.018;8.536;2024-02-21T05:58:25;26.27;;;14.20;;
11608;SDS011;5860;52.018;8.536;2024-02-21T06:00:52;22.83;;;13.53;;
11608;SDS011;5860;52.018;8.536;2024-02-21T06:03:20;24.83;;;13.37;;
11608;SDS011;5860;52.018;8.536;2024-02-21T06:05:47;24.10;;;14.07;;
11608;SDS011;5860;52.018;8.536;2024-02-21T06:08:14;29.73;;;13.60;;
11608;SDS011;5860;52.018;8.536;2024-02-21T06:10:40;28.17;;;13.50;;
11608;SDS011;5860;52.018;8.536;2024-02-21T06:13:07;24.23;;;14.57;;
11608;SDS011;5860;52.018;8.536;2024-02-21T06:15:35;24.77;;;12.67;;
11608;SDS011;5860;52.018;8.536;2024-02-21T06:18:02;30.27;;;13.30;;
11608;SDS011;5860;52.018;8.536;2024-02-21T06:20:29;23.00;;;12.93;;
11608;SDS011;5860;52.018;8.536;2024-02-21T06:22:57;30.47;;;14.17;;
11608;SDS011;5860;52.018;8.536;2024-02-21T06:25:24;22.50;;;13.43;;
11608;SDS011;5860;52.018;8.536;2024-02-21T06:27:50;26.37;;;14.03;;
11608;SDS011;5860;52.018;8.536;2024-02-21T06:30:17;23.93;;;13.13;;
11608;SDS011;5860;52.018;8.536;2024-02-21T06:32:44;27.57;;;13.63;;
11608;SDS011;5860;52.018;8.536;2024-02-21T06:35:11;24.90;;;13.80;;
11608;SDS011;5860;52.018;8.536;2024-02-21T06:37:38;23.63;;;14.10;;
11608;SDS011;5860;52.018;8.536;2024-02-21T06:40:05;30.03;;;13.53;;
11608;SDS011;5860;52.018;8.536;2024-02-21T06:42:33;25.13;;;12.60;;
11608;SDS011;5860;52.018;8.536;2024-02-21T06:45:00;23.80;;;13.13;;
11608;SDS011;5860;52.018;8.536;2024-02-21T06:47:26;20.60;;;12.57;;
11608;SDS011;5860;52.018;8.536;2024-02-21T06:49:53;21.83;;;11.00;;
11608;SDS011;5860;52.018;8.536;2024-02-21T06:52:20;21.90;;;11.37;;
11608;SDS011;5860;52.018;8.536;2024-02-21T06:54:47;22.97;;;11.70;;
11608;SDS011;5860;52.018;8.536;2024-02-21T06:57:14;21.30;;;10.93;;
11608;SDS011;5860;52.018;8.536;2024-02-21T06:59:42;21.93;;;11.03;;
11608;SDS011;5860;52.018;8.536;2024-02-21T07:02:08;19.70;;;10.80;;
11608;SDS011;5860;52.018;8.536;2024-02-21T07:04:35;26.03;;;9.77;;
11608;SDS011;5860;52.018;8.536;2024-02-21T07:07:02;17.93;;;10.03;;
11608;SDS011;5860;52.018;8.536;2024-02-21T07:09:30;17.57;;;10.00;;
11608;SDS011;5860;52.018;8.536;2024-02-21T07:11:58;18.53;;;10.90;;
11608;SDS011;5860;52.018;8.536;2024-02-21T07:14:25;24.23;;;10.90;;
11608;SDS011;5860;52.018;8.536;2024-02-21T07:16:54;18.13;;;9.87;;
11608;SDS011;5860;52.018;8.536;2024-02-21T07:19:21;21.13;;;10.53;;
11608;SDS011;5860;52.018;8.536;2024-02-21T07:21:48;21.83;;;9.60;;
11608;SDS011;5860;52.018;8.536;2024-02-21T07:24:15;14.60;;;9.20;;
11608;SDS011;5860;52.018;8.536;2024-02-21T07:26:42;21.03;;;9.17;;
11608;SDS011;5860;52.018;8.536;2024-02-21T07:29:09;18.87;;;9.60;;
11608;SDS011;5860;52.018;8.536;2024-02-21T07:31:42;18.50;;;8.53;;
11608;SDS011;5860;52.018;8.536;2024-02-21T07:34:10;17.40;;;9.23;;
11608;SDS011;5860;52.018;8.536;2024-02-21T07:36:37;15.67;;;8.57;;
11608;SDS011;5860;52.018;8.536;2024-02-21T07:39:05;17.13;;;8.07;;
11608;SDS011;5860;52.018;8.536;2024-02-21T07:41:32;17.17;;;7.63;;
11608;SDS011;5860;52.018;8.536;2024-02-21T07:44:00;17.23;;;8.10;;
11608;SDS011;5860;52.018;8.536;2024-02-21T07:46:27;14.73;;;7.60;;
11608;SDS011;5860;52.018;8.536;2024-02-21T07:48:54;14.40;;;8.27;;
11608;SDS011;5860;52.018;8.536;2024-02-21T07:51:21;20.17;;;8.93;;
11608;SDS011;5860;52.018;8.536;2024-02-21T07:53:48;17.83;;;8.27;;
11608;SDS011;5860;52.018;8.536;2024-02-21T07:56:15;12.60;;;8.27;;
11608;SDS011;5860;52.018;8.536;2024-02-21T07:58:42;17.27;;;8.50;;
11608;SDS011;5860;52.018;8.536;2024-02-21T08:01:09;14.43;;;7.63;;
11608;SDS011;5860;52.018;8.536;2024-02-21T08:03:36;21.47;;;8.13;;
11608;SDS011;5860;52.018;8.536;2024-02-21T08:06:03;13.97;;;6.90;;
11608;SDS011;5860;52.018;8.536;2024-02-21T08:08:30;14.33;;;7.20;;
11608;SDS011;5860;52.018;8.536;2024-02-21T08:10:57;14.50;;;7.43;;
11608;SDS011;5860;52.018;8.536;2024-02-21T08:13:24;15.60;;;7.90;;
11608;SDS011;5860;52.018;8.536;2024-02-21T08:15:51;13.30;;;6.57;;
11608;SDS011;5860;52.018;8.536;2024-02-21T08:18:18;16.77;;;7.10;;
11608;SDS011;5860;52.018;8.536;2024-02-21T08:20:45;13.87;;;6.63;;
11608;SDS011;5860;52.018;8.536;2024-02-21T08:23:12;10.87;;;6.07;;
11608;SDS011;5860;52.018;8.536;2024-02-21T08:25:39;11.47;;;5.90;;
11608;SDS011;5860;52.018;8.536;2024-02-21T08:28:06;10.93;;;4.87;;
11608;SDS011;5860;52.018;8.536;2024-02-21T08:30:34;12.10;;;5.50;;
11608;SDS011;5860;52.018;8.536;2024-02-21T08:33:00;11.13;;;5.50;;
11608;SDS011;5860;52.018;8.536;2024-02-21T08:35:27;10.73;;;5.80;;
11608;SDS011;5860;52.018;8.536;2024-02-21T08:37:54;12.37;;;5.70;;
11608;SDS011;5860;52.018;8.536;2024-02-21T08:40:21;12.77;;;5.37;;
11608;SDS011;5860;52.018;8.536;2024-02-21T08:42:48;13.07;;;5.60;;
11608;SDS011;5860;52.018;8.536;2024-02-21T08:45:16;13.80;;;6.33;;
11608;SDS011;5860;52.018;8.536;2024-02-21T08:47:43;8.93;;;5.80;;
11608;SDS011;5860;52.018;8.536;2024-02-21T08:50:11;12.33;;;6.07;;
11608;SDS011;5860;52.018;8.536;2024-02-21T08:52:53;13.03;;;6.20;;
11608;SDS011;5860;52.018;8.536;2024-02-21T08:55:23;13.47;;;5.57;;
11608;SDS011;5860;52.018;8.536;2024-02-21T08:57:50;10.63;;;5.93;;
11608;SDS011;5860;52.018;8.536;2024-02-21T09:00:17;12.53;;;5.50;;
11608;SDS011;5860;52.018;8.536;2024-02-21T09:02:47;16.67;;;6.00;;
11608;SDS011;5860;52.018;8.536;2024-02-21T09:05:14;13.03;;;5.63;;
11608;SDS011;5860;52.018;8.536;2024-02-21T09:07:41;10.33;;;4.93;;
11608;SDS011;5860;52.018;8.536;2024-02-21T09:10:08;8.70;;;5.37;;
11608;SDS011;5860;52.018;8.536;2024-02-21T09:12:36;8.90;;;4.53;;
11608;SDS011;5860;52.018;8.536;2024-02-21T09:15:03;10.50;;;5.17;;
11608;SDS011;5860;52.018;8.536;2024-02-21T09:17:30;12.80;;;5.50;;
11608;SDS011;5860;52.018;8.536;2024-02-21T09:19:57;9.60;;;5.20;;
11608;SDS011;5860;52.018;8.536;2024-02-21T09:22:36;10.73;;;5.00;;
11608;SDS011;5860;52.018;8.536;2024-02-21T09:25:04;8.00;;;4.40;;
11608;SDS011;5860;52.018;8.536;2024-02-21T09:27:32;10.00;;;4.67;;
11608;SDS011;5860;52.018;8.536;2024-02-21T09:29:59;10.03;;;4.80;;
11608;SDS011;5860;52.018;8.536;2024-02-21T09:32:26;8.40;;;4.60;;
11608;SDS011;5860;52.018;8.536;2024-02-21T09:34:53;8.67;;;3.93;;
11608;SDS011;5860;52.018;8.536;2024-02-21T09:37:25;11.47;;;4.57;;
11608;SDS011;5860;52.018;8.536;2024-02-21T09:39:52;14.37;;;4.87;;
11608;SDS011;5860;52.018;8.536;2024-02-21T09:42:20;10.40;;;3.83;;
11608;SDS011;5860;52.018;8.536;2024-02-21T09:44:50;7.87;;;4.23;;
11608;SDS011;5860;52.018;8.536;2024-02-21T09:47:19;4.80;;;3.23;;
11608;SDS011;5860;52.018;8.536;2024-02-21T09:49:50;8.60;;;4.23;;
11608;SDS011;5860;52.018;8.536;2024-02-21T09:52:18;9.23;;;3.77;;
11608;SDS011;5860;52.018;8.536;2024-02-21T09:54:46;8.50;;;4.10;;
11608;SDS011;5860;52.018;8.536;2024-02-21T09:57:15;9.87;;;4.40;;
11608;SDS011;5860;52.018;8.536;2024-02-21T09:59:42;6.83;;;4.00;;
11608;SDS011;5860;52.018;8.536;2024-02-21T10:02:12;9.53;;;4.07;;
11608;SDS011;5860;52.018;8.536;2024-02-21T10:04:41;6.97;;;4.00;;
11608;SDS011;5860;52.018;8.536;2024-02-21T10:07:09;8.47;;;4.40;;
11608;SDS011;5860;52.018;8.536;2024-02-21T10:09:36;9.73;;;4.40;;
11608;SDS011;5860;52.018;8.536;2024-02-21T10:12:11;6.97;;;4.53;;
11608;SDS011;5860;52.018;8.536;2024-02-21T10:14:40;7.63;;;4.03;;
11608;SDS011;5860;52.018;8.536;2024-02-21T10:17:07;6.47;;;4.20;;
11608;SDS011;5860;52.018;8.536;2024-02-21T10:19:37;8.37;;;4.27;;
11608;SDS011;5860;52.018;8.536;2024-02-21T10:22:07;11.13;;;5.13;;
11608;SDS011;5860;52.018;8.536;2024-02-21T10:24:35;8.93;;;4.87;;
11608;SDS011;5860;52.018;8.536;2024-02-21T10:27:09;11.20;;;5.20;;
11608;SDS011;5860;52.018;8.536;2024-02-21T10:29:38;9.33;;;4.10;;
11608;SDS011;5860;52.018;8.536;2024-02-21T10:34:38;8.10;;;4.40;;
11608;SDS011;5860;52.018;8.536;2024-02-21T10:37:07;10.07;;;5.03;;
11608;SDS011;5860;52.018;8.536;2024-02-21T10:39:36;10.80;;;5.13;;
11608;SDS011;5860;52.018;8.536;2024-02-21T10:42:05;9.07;;;5.17;;
11608;SDS011;5860;52.018;8.536;2024-02-21T10:44:33;9.10;;;4.87;;
11608;SDS011;5860;52.018;8.536;2024-02-21T10:47:09;11.10;;;5.20;;
11608;SDS011;5860;52.018;8.536;2024-02-21T10:49:40;10.30;;;5.57;;
11608;SDS011;5860;52.018;8.536;2024-02-21T10:54:45;12.33;;;5.83;;
11608;SDS011;5860;52.018;8.536;2024-02-21T10:57:19;10.43;;;5.50;;
11608;SDS011;5860;52.018;8.536;2024-02-21T10:59:48;12.83;;;6.70;;
11608;SDS011;5860;52.018;8.536;2024-02-21T11:02:16;11.90;;;6.67;;
11608;SDS011;5860;52.018;8.536;2024-02-21T11:04:43;12.77;;;6.77;;
11608;SDS011;5860;52.018;8.536;2024-02-21T11:07:12;12.63;;;6.77;;
11608;SDS011;5860;52.018;8.536;2024-02-21T11:09:40;10.63;;;6.33;;
11608;SDS011;5860;52.018;8.536;2024-02-21T11:12:19;11.33;;;6.67;;
11608;SDS011;5860;52.018;8.536;2024-02-21T11:14:50;12.67;;;7.17;;
11608;SDS011;5860;52.018;8.536;2024-02-21T11:17:17;11.90;;;6.40;;
11608;SDS011;5860;52.018;8.536;2024-02-21T11:19:45;11.87;;;6.33;;
11608;SDS011;5860;52.018;8.536;2024-02-21T11:22:20;15.40;;;8.07;;
11608;SDS011;5860;52.018;8.536;2024-02-21T11:24:49;12.47;;;6.90;;
11608;SDS011;5860;52.018;8.536;2024-02-21T11:27:19;12.73;;;6.23;;
11608;SDS011;5860;52.018;8.536;2024-02-21T11:29:47;9.93;;;6.23;;
11608;SDS011;5860;52.018;8.536;2024-02-21T11:32:19;11.23;;;6.73;;
11608;SDS011;5860;52.018;8.536;2024-02-21T11:37:29;11.83;;;6.77;;
11608;SDS011;5860;52.018;8.536;2024-02-21T11:40:00;12.00;;;6.40;;
11608;SDS011;5860;52.018;8.536;2024-02-21T11:42:27;13.70;;;7.43;;
11608;SDS011;5860;52.018;8.536;2024-02-21T11:44:56;12.57;;;6.90;;
11608;SDS011;5860;52.018;8.536;2024-02-21T11:47:23;10.50;;;6.80;;
11608;SDS011;5860;52.018;8.536;2024-02-21T11:49:51;11.50;;;7.27;;
11608;SDS011;5860;52.018;8.536;2024-02-21T11:52:22;10.10;;;6.87;;
11608;SDS011;5860;52.018;8.536;2024-02-21T11:54:52;14.13;;;6.70;;
11608;SDS011;5860;52.018;8.536;2024-02-21T11:57:21;11.53;;;6.63;;
11608;SDS011;5860;52.018;8.536;2024-02-21T11:59:48;8.80;;;5.90;;
11608;SDS011;5860;52.018;8.536;2024-02-21T12:02:18;10.43;;;5.97;;
11608;SDS011;5860;52.018;8.536;2024-02-21T12:04:46;10.23;;;6.13;;
11608;SDS011;5860;52.018;8.536;2024-02-21T12:07:15;12.50;;;5.93;;
11608;SDS011;5860;52.018;8.536;2024-02-21T12:09:44;10.03;;;5.67;;
11608;SDS011;5860;52.018;8.536;2024-02-21T12:12:11;14.83;;;6.43;;
11608;SDS011;5860;52.018;8.536;2024-02-21T12:14:38;9.60;;;5.53;;
11608;SDS011;5860;52.018;8.536;2024-02-21T12:17:05;12.10;;;6.20;;
11608;SDS011;5860;52.018;8.536;2024-02-21T12:19:33;15.53;;;6.30;;
11608;SDS011;5860;52.018;8.536;2024-02-21T12:22:01;10.03;;;6.23;;
11608;SDS011;5860;52.018;8.536;2024-02-21T12:24:32;10.50;;;5.53;;
11608;SDS011;5860;52.018;8.536;2024-02-21T12:26:59;10.80;;;5.07;;
11608;SDS011;5860;52.018;8.536;2024-02-21T12:29:30;10.57;;;5.17;;
11608;SDS011;5860;52.018;8.536;2024-02-21T12:31:57;11.13;;;4.83;;
11608;SDS011;5860;52.018;8.536;2024-02-21T12:34:24;10.97;;;5.07;;
11608;SDS011;5860;52.018;8.536;2024-02-21T12:37:10;10.20;;;5.13;;
11608;SDS011;5860;52.018;8.536;2024-02-21T12:39:40;8.97;;;4.57;;
11608;SDS011;5860;52.018;8.536;2024-02-21T12:42:06;9.33;;;4.90;;
11608;SDS011;5860;52.018;8.536;2024-02-21T12:44:35;9.07;;;4.77;;
11608;SDS011;5860;52.018;8.536;2024-02-21T12:47:02;9.00;;;5.43;;
11608;SDS011;5860;52.018;8.536;2024-02-21T12:49:29;13.20;;;7.23;;
11608;SDS011;5860;52.018;8.536;2024-02-21T12:51:57;12.93;;;6.87;;
11608;SDS011;5860;52.018;8.536;2024-02-21T12:54:24;15.80;;;6.67;;
11608;SDS011;5860;52.018;8.536;2024-02-21T12:56:50;16.17;;;7.17;;
11608;SDS011;5860;52.018;8.536;2024-02-21T12:59:17;15.97;;;6.80;;
11608;SDS011;5860;52.018;8.536;2024-02-21T13:01:44;11.30;;;5.90;;
11608;SDS011;5860;52.018;8.536;2024-02-21T13:04:12;13.03;;;6.70;;
11608;SDS011;5860;52.018;8.536;2024-02-21T13:06:39;13.30;;;6.80;;
11608;SDS011;5860;52.018;8.536;2024-02-21T13:09:06;12.20;;;6.17;;
11608;SDS011;5860;52.018;8.536;2024-02-21T13:11:37;10.10;;;5.63;;
11608;SDS011;5860;52.018;8.536;2024-02-21T13:14:04;14.33;;;5.40;;
11608;SDS011;5860;52.018;8.536;2024-02-21T13:16:32;15.80;;;6.03;;
11608;SDS011;5860;52.018;8.536;2024-02-21T13:19:06;9.53;;;5.77;;
11608;SDS011;5860;52.018;8.536;2024-02-21T13:21:37;12.70;;;4.87;;
11608;SDS011;5860;52.018;8.536;2024-02-21T13:24:04;10.43;;;5.30;;
11608;SDS011;5860;52.018;8.536;2024-02-21T13:26:31;12.20;;;5.33;;
11608;SDS011;5860;52.018;8.536;2024-02-21T13:28:58;11.53;;;5.20;;
11608;SDS011;5860;52.018;8.536;2024-02-21T13:31:25;12.57;;;4.90;;
11608;SDS011;5860;52.018;8.536;2024-02-21T13:33:52;10.70;;;4.80;;
11608;SDS011;5860;52.018;8.536;2024-02-21T13:36:19;16.00;;;5.30;;
11608;SDS011;5860;52.018;8.536;2024-02-21T13:38:46;10.80;;;4.73;;
11608;SDS011;5860;52.018;8.536;2024-02-21T13:41:13;8.63;;;4.40;;
11608;SDS011;5860;52.018;8.536;2024-02-21T13:43:40;10.07;;;4.07;;
11608;SDS011;5860;52.018;8.536;2024-02-21T13:46:08;8.83;;;3.63;;
11608;SDS011;5860;52.018;8.536;2024-02-21T13:48:37;12.73;;;5.00;;
11608;SDS011;5860;52.018;8.536;2024-02-21T13:51:04;9.57;;;3.97;;
11608;SDS011;5860;52.018;8.536;2024-02-21T13:53:31;9.70;;;4.10;;
11608;SDS011;5860;52.018;8.536;2024-02-21T13:56:00;6.43;;;3.57;;
11608;SDS011;5860;52.018;8.536;2024-02-21T13:58:28;7.60;;;3.60;;
11608;SDS011;5860;52.018;8.536;2024-02-21T14:00:55;11.23;;;3.80;;
11608;SDS011;5860;52.018;8.536;2024-02-21T14:03:23;8.77;;;3.30;;
11608;SDS011;5860;52.018;8.536;2024-02-21T14:05:52;10.23;;;4.10;;
11608;SDS011;5860;52.018;8.536;2024-02-21T14:08:19;8.17;;;3.27;;
11608;SDS011;5860;52.018;8.536;2024-02-21T14:10:46;8.20;;;3.20;;
11608;SDS011;5860;52.018;8.536;2024-02-21T14:13:14;10.40;;;3.13;;
11608;SDS011;5860;52.018;8.536;2024-02-21T14:15:43;8.13;;;3.03;;
11608;SDS011;5860;52.018;8.536;2024-02-21T14:18:14;8.70;;;3.27;;
11608;SDS011;5860;52.018;8.536;2024-02-21T14:20:43;6.93;;;3.00;;
11608;SDS011;5860;52.018;8.536;2024-02-21T14:23:09;6.27;;;3.33;;
11608;SDS011;5860;52.018;8.536;2024-02-21T14:25:37;6.37;;;3.07;;
11608;SDS011;5860;52.018;8.536;2024-02-21T14:28:05;9.23;;;3.43;;
11608;SDS011;5860;52.018;8.536;2024-02-21T14:30:35;7.20;;;3.47;;
11608;SDS011;5860;52.018;8.536;2024-02-21T14:33:02;7.00;;;2.93;;
11608;SDS011;5860;52.018;8.536;2024-02-21T14:35:29;8.73;;;3.07;;
11608;SDS011;5860;52.018;8.536;2024-02-21T14:37:56;7.77;;;3.17;;
11608;SDS011;5860;52.018;8.536;2024-02-21T14:40:24;8.73;;;3.30;;
11608;SDS011;5860;52.018;8.536;2024-02-21T14:42:51;10.10;;;3.00;;
11608;SDS011;5860;52.018;8.536;2024-02-21T14:45:18;7.17;;;3.03;;
11608;SDS011;5860;52.018;8.536;2024-02-21T14:47:46;9.37;;;2.50;;
11608;SDS011;5860;52.018;8.536;2024-02-21T14:50:13;11.63;;;3.67;;
11608;SDS011;5860;52.018;8.536;2024-02-21T14:52:40;8.33;;;3.33;;
11608;SDS011;5860;52.018;8.536;2024-02-21T14:55:07;5.50;;;2.50;;